LJMB/MBX METAR and TAF weather

Enter ICAO airport designator
Station Type Date Time Source
LJMB METAR 2022/01/18 07:30 UTC NOAA

LJMB 180730Z 15006KT 9999 SCT020 01/M01 Q1033


Station Type Date Time Source
LJMB Decoded METAR 2022/01/18 07:30 UTC NOAA

Maribor / Slivnica, Slovenia (LJMB) 46-29N 015-41E 265M
Jan 18, 2022 - 02:30 AM EST / 2022.01.18 0730 UTC
Wind: from the SSE (150 degrees) at 7 MPH (6 KT):0
Visibility: greater than 7 mile(s):0
Sky conditions: partly cloudy
Temperature: 33 F (1 C)
Windchill: 26 F (-3 C):1
Dew Point: 30 F (-1 C)
Relative Humidity: 86%
Pressure (altimeter): 30.50 in. Hg (1033 hPa)
ob: LJMB 180730Z 15006KT 9999 SCT020 01/M01 Q1033
cycle: 7

Station Type Date Time Source
LJMB TAF 2022/01/18 06:04 UTC NOAA

TAF
AMD LJMB 180442Z 1806/1906 17005KT 9999 BKN023

Example: see airport list